Time;durP1;ratioP1;P1;durP2;ratioP2;P2;SDS_P1;SDS_P2;PMS_P1;PMS_P2;Temp;Humidity;BMP_temperature;BMP_pressure;BME280_temperature;BME280_humidity;BME280_pressure;Samples;Min_cycle;Max_cycle;Signal;HPM_P1;HPM_P2
2023/12/16 00:00:43;;;;;;;14.55;8.65;;;9.30;99.90;;;;;;5077558;28;20521;-63
2023/12/16 00:03:12;;;;;;;16.33;8.60;;;9.20;99.90;;;;;;5077467;28;20036;-62
2023/12/16 00:05:39;;;;;;;16.88;8.13;;;9.00;99.90;;;;;;5077227;28;20514;-63
2023/12/16 00:08:04;;;;;;;14.50;7.90;;;8.90;99.90;;;;;;5074849;28;20024;-64
2023/12/16 00:10:30;;;;;;;17.83;8.00;;;8.90;99.90;;;;;;5073947;28;20499;-63
2023/12/16 00:12:56;;;;;;;14.60;7.30;;;8.90;99.90;;;;;;5073562;28;20059;-63
2023/12/16 00:15:21;;;;;;;13.52;7.15;;;9.00;99.90;;;;;;5073648;28;20040;-63
2023/12/16 00:17:47;;;;;;;13.65;6.95;;;9.10;99.90;;;;;;5074169;28;20103;-63
2023/12/16 00:20:12;;;;;;;16.00;6.97;;;9.10;99.90;;;;;;5073717;28;20024;-63
2023/12/16 00:22:38;;;;;;;14.48;6.60;;;9.20;99.90;;;;;;5073737;28;20037;-63
2023/12/16 00:25:08;;;;;;;15.88;7.03;;;9.20;99.90;;;;;;5073566;28;20116;-63
2023/12/16 00:27:33;;;;;;;11.15;5.97;;;9.30;99.90;;;;;;5073353;28;20021;-63
2023/12/16 00:29:59;;;;;;;12.52;6.65;;;9.20;99.90;;;;;;5073790;28;20036;-63
2023/12/16 00:32:25;;;;;;;13.40;6.97;;;9.20;99.90;;;;;;5073451;28;20024;-63
2023/12/16 00:34:50;;;;;;;17.60;10.40;;;9.10;99.90;;;;;;5073378;28;20090;-63
2023/12/16 00:37:16;;;;;;;14.73;9.15;;;9.30;99.90;;;;;;5073392;28;20158;-63
2023/12/16 00:39:42;;;;;;;14.75;9.25;;;9.10;99.90;;;;;;5073390;28;20074;-63
2023/12/16 00:42:07;;;;;;;16.55;11.38;;;8.90;99.90;;;;;;5073139;28;20028;-63
2023/12/16 00:44:33;;;;;;;20.80;13.00;;;8.80;99.90;;;;;;5073491;28;20532;-64
2023/12/16 00:47:00;;;;;;;25.88;14.68;;;8.70;99.90;;;;;;5073075;28;20526;-63
2023/12/16 00:49:27;;;;;;;29.73;18.08;;;8.50;99.90;;;;;;5073527;28;20070;-64
2023/12/16 00:51:52;;;;;;;44.03;28.95;;;8.40;99.90;;;;;;5073063;28;20108;-64
2023/12/16 00:54:18;;;;;;;37.00;21.38;;;8.30;99.90;;;;;;5066572;28;20107;-63
2023/12/16 00:56:44;;;;;;;28.85;17.02;;;8.30;99.90;;;;;;5053057;28;20037;-63
2023/12/16 00:59:09;;;;;;;25.58;14.82;;;8.30;99.90;;;;;;5052869;28;20037;-63
2023/12/16 01:01:35;;;;;;;23.20;14.15;;;8.20;99.90;;;;;;5052904;28;20033;-63
2023/12/16 01:04:01;;;;;;;26.42;14.50;;;8.10;99.90;;;;;;5053152;28;20112;-63
2023/12/16 01:06:26;;;;;;;25.77;14.05;;;8.10;99.90;;;;;;5052800;28;20078;-63
2023/12/16 01:08:52;;;;;;;29.33;14.15;;;8.00;99.90;;;;;;5051769;28;20029;-63
2023/12/16 01:11:17;;;;;;;21.75;13.15;;;8.00;99.90;;;;;;5052447;28;20074;-63
2023/12/16 01:13:43;;;;;;;21.40;12.90;;;8.00;99.90;;;;;;5052736;28;20028;-64
2023/12/16 01:16:09;;;;;;;15.85;10.70;;;7.90;99.90;;;;;;5052668;28;20035;-63
2023/12/16 01:18:35;;;;;;;18.67;10.63;;;7.80;99.90;;;;;;5052526;28;20100;-63
2023/12/16 01:21:08;;;;;;;19.67;8.80;;;7.80;99.90;;;;;;5051375;28;20041;-63
2023/12/16 01:23:35;;;;;;;18.60;9.68;;;7.70;99.90;;;;;;5052500;28;20505;-63
2023/12/16 01:26:00;;;;;;;17.63;9.20;;;7.70;99.90;;;;;;5052149;28;20480;-62
2023/12/16 01:28:26;;;;;;;15.05;9.23;;;7.60;99.90;;;;;;5052875;28;20029;-63
2023/12/16 01:30:52;;;;;;;14.73;8.75;;;7.60;99.90;;;;;;5052323;28;20084;-63
2023/12/16 01:33:18;;;;;;;20.40;9.02;;;7.60;99.90;;;;;;5052379;28;20029;-63
2023/12/16 01:35:43;;;;;;;15.10;9.80;;;7.50;99.90;;;;;;5052765;28;20495;-63
2023/12/16 01:38:09;;;;;;;15.82;9.65;;;7.50;99.90;;;;;;5052123;28;20488;-63
2023/12/16 01:40:36;;;;;;;17.23;9.43;;;7.50;99.90;;;;;;5051898;28;20486;-63
2023/12/16 01:43:06;;;;;;;21.70;10.75;;;7.40;99.90;;;;;;5052312;28;20490;-63
2023/12/16 01:45:32;;;;;;;18.58;10.07;;;7.30;99.90;;;;;;5052415;28;20021;-63
2023/12/16 01:47:59;;;;;;;20.15;10.18;;;7.40;99.90;;;;;;5052104;28;20162;-63
2023/12/16 01:50:26;;;;;;;18.08;11.18;;;7.20;99.90;;;;;;5052060;28;20430;-63
2023/12/16 01:52:53;;;;;;;22.27;11.38;;;7.30;99.90;;;;;;5051892;28;20143;-63
2023/12/16 01:55:19;;;;;;;18.13;11.93;;;7.30;99.90;;;;;;5065976;28;20040;-62
2023/12/16 01:57:46;;;;;;;18.23;11.90;;;7.20;99.90;;;;;;5071951;28;20597;-63
2023/12/16 02:00:13;;;;;;;21.55;12.77;;;7.20;99.90;;;;;;5071648;28;20067;-63
2023/12/16 02:02:40;;;;;;;20.75;13.05;;;7.10;99.90;;;;;;5071921;28;20506;-63
2023/12/16 02:05:06;;;;;;;22.55;12.77;;;7.10;99.90;;;;;;5071912;28;20029;-63
2023/12/16 02:07:32;;;;;;;21.40;13.23;;;7.30;99.90;;;;;;5071578;28;20028;-64
2023/12/16 02:09:58;;;;;;;22.20;12.65;;;7.40;99.90;;;;;;5071673;28;20843;-63
2023/12/16 02:12:27;;;;;;;23.90;13.52;;;7.50;99.90;;;;;;5071596;28;20035;-63
2023/12/16 02:14:53;;;;;;;18.08;13.30;;;7.50;99.90;;;;;;5071495;28;20021;-63
2023/12/16 02:17:18;;;;;;;21.17;14.20;;;7.60;99.90;;;;;;5071602;28;20463;-64
2023/12/16 02:19:47;;;;;;;21.27;13.95;;;7.60;99.90;;;;;;5072005;28;20078;-63
2023/12/16 02:22:13;;;;;;;23.95;14.05;;;7.60;99.90;;;;;;5071361;28;20025;-62
2023/12/16 02:24:41;;;;;;;21.70;13.95;;;7.50;99.90;;;;;;5071184;28;20027;-64
2023/12/16 02:27:07;;;;;;;21.42;14.48;;;7.60;99.90;;;;;;5071511;28;20376;-64
2023/12/16 02:29:33;;;;;;;19.90;14.05;;;7.60;99.90;;;;;;5071835;28;20027;-63
2023/12/16 02:31:59;;;;;;;21.05;15.07;;;7.50;99.90;;;;;;5071096;28;20402;-63
2023/12/16 02:34:25;;;;;;;23.48;15.32;;;7.30;99.90;;;;;;5071124;28;20116;-63
2023/12/16 02:36:51;;;;;;;21.92;15.95;;;7.20;99.90;;;;;;5071367;28;20111;-63
2023/12/16 02:39:17;;;;;;;21.63;14.93;;;7.10;99.90;;;;;;5070982;28;20111;-63
2023/12/16 02:41:43;;;;;;;24.50;15.95;;;7.00;99.90;;;;;;5071242;28;20024;-63
2023/12/16 02:44:09;;;;;;;22.33;16.38;;;6.90;99.90;;;;;;5071294;28;20082;-63
2023/12/16 02:46:34;;;;;;;27.48;15.82;;;6.80;99.90;;;;;;5071481;28;20025;-64
2023/12/16 02:49:00;;;;;;;23.80;15.57;;;6.90;99.90;;;;;;5071197;28;20372;-63
2023/12/16 02:51:26;;;;;;;20.75;15.45;;;6.80;99.90;;;;;;5070827;28;20032;-62
2023/12/16 02:53:53;;;;;;;24.10;14.95;;;6.60;99.90;;;;;;5068459;28;20025;-63
2023/12/16 02:56:18;;;;;;;21.92;15.60;;;6.60;99.90;;;;;;5051293;28;20078;-64
2023/12/16 02:58:44;;;;;;;25.95;15.77;;;6.70;99.90;;;;;;5050927;28;20479;-63
2023/12/16 03:01:10;;;;;;;20.85;15.27;;;6.60;99.90;;;;;;5051135;28;20041;-63
2023/12/16 03:03:39;;;;;;;25.35;15.75;;;6.60;99.90;;;;;;5050958;28;20024;-63
2023/12/16 03:06:08;;;;;;;22.73;15.38;;;6.50;99.90;;;;;;5050615;28;20033;-63
2023/12/16 03:08:38;;;;;;;26.35;16.02;;;6.40;99.90;;;;;;5051297;28;20029;-63
2023/12/16 03:11:04;;;;;;;21.73;15.90;;;6.40;99.90;;;;;;5051065;28;20029;-62
2023/12/16 03:13:30;;;;;;;22.40;16.10;;;6.30;99.90;;;;;;5050961;28;20368;-63
2023/12/16 03:15:56;;;;;;;23.63;16.63;;;6.30;99.90;;;;;;5050750;28;20044;-63
2023/12/16 03:18:22;;;;;;;21.95;16.45;;;6.20;99.90;;;;;;5050859;28;20021;-63
2023/12/16 03:20:49;;;;;;;25.15;16.35;;;6.20;99.90;;;;;;5050622;28;20028;-63
2023/12/16 03:23:15;;;;;;;21.38;15.80;;;6.20;99.90;;;;;;5050813;28;20021;-63
2023/12/16 03:25:44;;;;;;;25.55;16.77;;;6.10;99.90;;;;;;5049869;28;20541;-63
2023/12/16 03:28:10;;;;;;;24.08;16.20;;;6.10;99.90;;;;;;5050802;28;20024;-63
2023/12/16 03:30:39;;;;;;;23.08;17.08;;;6.10;99.90;;;;;;5050826;28;20025;-63
2023/12/16 03:33:05;;;;;;;26.90;16.77;;;6.00;99.90;;;;;;5051115;28;20045;-63
2023/12/16 03:35:31;;;;;;;28.90;17.88;;;6.00;99.90;;;;;;5050068;28;20483;-63
2023/12/16 03:37:56;;;;;;;25.45;17.48;;;6.10;99.90;;;;;;5051016;28;20033;-63
2023/12/16 03:40:23;;;;;;;26.58;17.33;;;6.00;99.90;;;;;;5050843;28;20113;-63
2023/12/16 03:42:48;;;;;;;26.60;17.50;;;6.00;99.90;;;;;;5050926;28;20078;-63
2023/12/16 03:45:14;;;;;;;20.83;17.15;;;5.90;99.90;;;;;;5054564;28;20029;-63
2023/12/16 03:47:40;;;;;;;24.15;17.35;;;5.90;99.90;;;;;;5054284;28;20033;-63
2023/12/16 03:50:06;;;;;;;24.80;16.95;;;5.90;99.90;;;;;;5054081;28;20067;-62
2023/12/16 03:52:31;;;;;;;25.10;17.90;;;5.90;99.90;;;;;;5054349;28;20028;-62
2023/12/16 03:54:57;;;;;;;25.00;17.65;;;5.80;99.90;;;;;;5054090;28;20025;-63
2023/12/16 03:57:23;;;;;;;25.10;16.88;;;5.80;99.90;;;;;;5054566;28;20029;-63
2023/12/16 03:59:48;;;;;;;23.75;16.50;;;5.80;99.90;;;;;;5054110;28;20044;-63
2023/12/16 04:02:14;;;;;;;22.83;15.90;;;5.80;99.90;;;;;;5053773;28;20036;-64
2023/12/16 04:04:41;;;;;;;23.50;16.73;;;6.00;99.90;;;;;;5053976;28;20021;-63
2023/12/16 04:07:07;;;;;;;22.35;16.00;;;6.10;99.90;;;;;;5054121;28;20029;-64
2023/12/16 04:09:32;;;;;;;21.48;15.65;;;6.30;99.90;;;;;;5054007;28;20021;-64
2023/12/16 04:11:58;;;;;;;24.58;16.70;;;6.30;99.90;;;;;;5054049;28;20539;-64
2023/12/16 04:14:24;;;;;;;24.52;16.23;;;6.30;99.90;;;;;;5054083;28;20029;-63
2023/12/16 04:16:49;;;;;;;23.10;15.57;;;6.30;99.90;;;;;;5053805;28;20099;-64
2023/12/16 04:19:15;;;;;;;20.95;14.07;;;6.40;99.90;;;;;;5053435;28;20059;-64
2023/12/16 04:21:41;;;;;;;20.38;14.77;;;6.50;99.90;;;;;;5054144;28;20033;-64
2023/12/16 04:24:07;;;;;;;24.50;14.15;;;6.30;99.90;;;;;;5053762;28;20082;-64
2023/12/16 04:26:35;;;;;;;19.83;13.20;;;6.40;99.90;;;;;;5053684;28;20393;-64
2023/12/16 04:29:01;;;;;;;21.10;12.77;;;6.30;99.90;;;;;;5054016;28;20021;-64
2023/12/16 04:31:26;;;;;;;20.65;12.50;;;6.20;99.90;;;;;;5053539;28;20040;-64
2023/12/16 04:33:54;;;;;;;16.40;12.05;;;6.10;99.90;;;;;;5053060;28;20395;-63
2023/12/16 04:36:20;;;;;;;18.95;12.82;;;6.00;99.90;;;;;;5053747;28;20033;-63
2023/12/16 04:38:45;;;;;;;19.65;13.07;;;5.90;99.90;;;;;;5053526;28;20024;-63
2023/12/16 04:41:12;;;;;;;20.45;12.35;;;5.80;99.90;;;;;;5053380;28;20037;-63
2023/12/16 04:43:38;;;;;;;20.58;13.35;;;5.80;99.90;;;;;;5053425;28;20017;-64
2023/12/16 04:46:04;;;;;;;19.98;13.02;;;5.70;99.90;;;;;;5053109;28;20470;-63
2023/12/16 04:48:30;;;;;;;20.40;13.50;;;5.60;99.90;;;;;;5053381;28;20021;-64
2023/12/16 04:50:56;;;;;;;20.52;12.85;;;5.50;99.90;;;;;;5053619;28;20033;-63
2023/12/16 04:53:22;;;;;;;20.55;13.48;;;5.50;99.90;;;;;;5053114;28;20029;-64
2023/12/16 04:55:47;;;;;;;19.15;13.32;;;5.40;99.90;;;;;;5052711;28;20045;-63
2023/12/16 04:58:13;;;;;;;22.00;13.88;;;5.40;99.90;;;;;;5053250;28;20021;-64
2023/12/16 05:00:39;;;;;;;22.90;13.50;;;5.40;99.90;;;;;;5052822;28;20055;-64
2023/12/16 05:03:04;;;;;;;20.40;13.68;;;5.30;99.90;;;;;;5052753;28;20442;-63
2023/12/16 05:05:30;;;;;;;19.42;13.20;;;5.30;99.90;;;;;;5052898;28;20592;-63
2023/12/16 05:07:56;;;;;;;18.35;13.40;;;5.30;99.90;;;;;;5052802;28;20017;-64
2023/12/16 05:10:21;;;;;;;22.70;13.93;;;5.30;99.90;;;;;;5053174;28;20029;-64
2023/12/16 05:12:47;;;;;;;21.30;13.75;;;5.20;99.90;;;;;;5052802;28;20075;-64
2023/12/16 05:15:13;;;;;;;19.15;12.48;;;5.20;99.90;;;;;;5052600;28;20507;-64
2023/12/16 05:17:38;;;;;;;20.60;13.30;;;5.20;99.90;;;;;;5052220;28;20024;-64
2023/12/16 05:20:05;;;;;;;21.48;13.30;;;5.20;99.90;;;;;;5053024;28;20029;-64
2023/12/16 05:22:33;;;;;;;18.60;13.20;;;5.20;99.90;;;;;;5052571;28;20487;-64
2023/12/16 05:25:00;;;;;;;20.75;14.23;;;5.10;99.90;;;;;;5052706;28;20120;-63
2023/12/16 05:27:27;;;;;;;18.88;13.23;;;5.10;99.90;;;;;;5052431;28;20061;-63
2023/12/16 05:29:52;;;;;;;18.95;12.88;;;5.10;99.90;;;;;;5052748;28;20123;-63
2023/12/16 05:32:18;;;;;;;20.95;13.80;;;5.10;99.90;;;;;;5052106;28;20436;-64
2023/12/16 05:34:44;;;;;;;21.77;13.82;;;5.00;99.90;;;;;;5052263;28;20021;-63
2023/12/16 05:37:09;;;;;;;21.42;13.65;;;5.00;99.90;;;;;;5052533;28;20032;-63
2023/12/16 05:39:35;;;;;;;19.30;13.43;;;5.00;99.90;;;;;;5052239;28;20392;-63
2023/12/16 05:42:01;;;;;;;21.75;13.80;;;5.00;99.90;;;;;;5052512;28;20040;-63
2023/12/16 05:44:26;;;;;;;20.40;14.05;;;5.00;99.90;;;;;;5052096;28;20017;-64
2023/12/16 05:46:52;;;;;;;21.65;13.57;;;5.00;99.90;;;;;;5051790;28;20487;-63
2023/12/16 05:49:17;;;;;;;18.10;13.40;;;5.00;99.90;;;;;;5051969;28;20025;-63
2023/12/16 05:51:43;;;;;;;21.92;13.75;;;5.00;99.90;;;;;;5052172;28;20025;-63
2023/12/16 05:54:09;;;;;;;17.85;13.20;;;5.00;99.90;;;;;;5051758;28;20033;-64
2023/12/16 05:56:34;;;;;;;19.30;12.90;;;4.90;99.90;;;;;;5051986;28;20053;-63
2023/12/16 05:59:00;;;;;;;22.67;13.52;;;4.90;99.90;;;;;;5051814;28;20474;-63
2023/12/16 06:01:26;;;;;;;24.08;13.05;;;4.90;99.90;;;;;;5051517;28;20045;-63
2023/12/16 06:03:52;;;;;;;21.98;12.80;;;4.90;99.90;;;;;;5051875;28;20044;-63
2023/12/16 06:06:18;;;;;;;20.27;12.70;;;5.00;99.90;;;;;;5051083;28;20522;-63
2023/12/16 06:08:44;;;;;;;19.23;12.73;;;5.20;99.90;;;;;;5051690;28;20045;-63
2023/12/16 06:11:12;;;;;;;19.60;13.38;;;5.30;99.90;;;;;;5052096;28;20100;-63
2023/12/16 06:13:39;;;;;;;19.95;12.88;;;5.40;99.90;;;;;;5051240;28;20029;-63
2023/12/16 06:16:05;;;;;;;16.25;11.68;;;5.50;99.90;;;;;;5051292;28;20040;-63
2023/12/16 06:18:31;;;;;;;23.70;11.68;;;5.50;99.90;;;;;;5051435;28;20016;-63
2023/12/16 06:20:56;;;;;;;14.63;11.57;;;5.50;99.90;;;;;;5051496;28;20147;-63
2023/12/16 06:23:22;;;;;;;17.45;11.85;;;5.40;99.90;;;;;;5051580;28;20056;-63
2023/12/16 06:25:48;;;;;;;17.85;11.75;;;5.40;99.90;;;;;;5051776;28;20029;-63
2023/12/16 06:28:13;;;;;;;18.67;13.30;;;5.40;99.90;;;;;;5051102;28;20040;-63
2023/12/16 06:30:41;;;;;;;25.27;15.77;;;5.30;99.90;;;;;;5050859;28;20107;-63
2023/12/16 06:33:06;;;;;;;24.77;17.48;;;5.10;99.90;;;;;;5051398;28;20036;-63
2023/12/16 06:35:32;;;;;;;30.15;18.85;;;5.00;99.90;;;;;;5051465;28;20029;-63
2023/12/16 06:37:58;;;;;;;32.67;19.52;;;4.90;99.90;;;;;;5051002;28;20025;-63
2023/12/16 06:40:23;;;;;;;31.45;20.45;;;4.80;99.90;;;;;;5050979;28;20056;-63
2023/12/16 06:42:49;;;;;;;37.63;20.98;;;4.80;99.90;;;;;;5051541;28;20033;-63
2023/12/16 06:45:15;;;;;;;33.00;20.67;;;4.70;99.90;;;;;;5050677;28;20032;-63
2023/12/16 06:47:40;;;;;;;33.65;21.55;;;4.80;99.90;;;;;;5051081;28;20025;-62
2023/12/16 06:50:08;;;;;;;32.13;20.63;;;4.70;99.90;;;;;;5051521;28;20118;-63
2023/12/16 06:52:34;;;;;;;28.17;20.05;;;4.70;99.90;;;;;;5050846;28;20018;-63
2023/12/16 06:54:59;;;;;;;29.83;19.10;;;4.60;99.90;;;;;;5062668;28;20110;-63
2023/12/16 06:57:25;;;;;;;29.75;19.15;;;4.50;99.90;;;;;;5071061;28;20034;-63
2023/12/16 06:59:50;;;;;;;30.80;18.77;;;4.50;99.90;;;;;;5070477;28;20506;-63
2023/12/16 07:02:16;;;;;;;25.10;16.38;;;4.50;99.90;;;;;;5070982;28;20367;-63
2023/12/16 07:04:42;;;;;;;49.83;34.85;;;4.60;99.90;;;;;;5071381;28;20033;-63
2023/12/16 07:07:07;;;;;;;42.17;28.88;;;4.50;99.90;;;;;;5071064;28;20487;-63
2023/12/16 07:09:33;;;;;;;42.10;25.65;;;4.50;99.90;;;;;;5070754;28;20021;-63
2023/12/16 07:11:59;;;;;;;35.58;22.90;;;4.50;99.90;;;;;;5070782;28;20036;-63
2023/12/16 07:14:28;;;;;;;33.55;21.75;;;4.50;99.90;;;;;;5070670;28;20035;-63
2023/12/16 07:16:53;;;;;;;40.33;22.70;;;4.50;99.90;;;;;;5071378;28;20029;-63
2023/12/16 07:19:19;;;;;;;42.33;22.88;;;4.40;99.90;;;;;;5075016;28;20403;-64
2023/12/16 07:21:45;;;;;;;40.85;23.73;;;4.60;99.90;;;;;;5075274;28;20033;-62
2023/12/16 07:24:11;;;;;;;36.55;22.08;;;4.60;99.90;;;;;;5074747;28;20040;-63
2023/12/16 07:26:36;;;;;;;35.72;21.15;;;4.70;99.90;;;;;;5074520;28;20578;-65
2023/12/16 07:29:02;;;;;;;37.05;20.77;;;4.70;99.90;;;;;;5074386;28;20087;-65
2023/12/16 07:31:29;;;;;;;36.85;20.60;;;4.80;99.90;;;;;;5074664;28;20039;-65
2023/12/16 07:33:55;;;;;;;36.08;20.35;;;4.80;99.90;;;;;;5074689;28;20398;-65
2023/12/16 07:36:21;;;;;;;36.38;20.42;;;4.80;99.90;;;;;;5074911;28;20036;-64
2023/12/16 07:38:47;;;;;;;34.45;21.05;;;4.90;99.90;;;;;;5074579;28;20060;-65
2023/12/16 07:41:12;;;;;;;31.58;20.05;;;4.90;99.90;;;;;;5074386;28;20045;-65
2023/12/16 07:43:39;;;;;;;24.45;17.38;;;4.90;99.90;;;;;;5074472;28;20470;-65
2023/12/16 07:46:05;;;;;;;23.98;17.40;;;5.00;99.90;;;;;;5074210;28;20032;-65
2023/12/16 07:48:31;;;;;;;23.20;16.20;;;5.10;99.90;;;;;;5074342;28;20445;-65
2023/12/16 07:50:56;;;;;;;23.75;17.35;;;5.10;99.90;;;;;;5074207;28;20478;-65
2023/12/16 07:53:22;;;;;;;29.15;15.63;;;5.10;99.90;;;;;;5074160;28;20395;-65
2023/12/16 07:55:49;;;;;;;18.10;13.45;;;5.00;99.90;;;;;;5073929;28;20509;-64
2023/12/16 07:58:15;;;;;;;15.75;13.02;;;5.00;99.90;;;;;;5073627;28;20043;-65
2023/12/16 08:00:41;;;;;;;15.15;13.55;;;4.90;99.90;;;;;;5073872;28;20131;-65
2023/12/16 08:03:07;;;;;;;13.82;12.38;;;4.90;99.90;;;;;;5074387;28;20092;-64
2023/12/16 08:05:33;;;;;;;19.02;12.82;;;5.00;99.90;;;;;;5074042;28;20111;-65
2023/12/16 08:07:59;;;;;;;14.73;12.55;;;4.90;99.90;;;;;;5073900;28;20483;-65
2023/12/16 08:10:24;;;;;;;14.35;12.85;;;5.10;99.90;;;;;;5074389;28;20025;-66
2023/12/16 08:12:50;;;;;;;16.73;13.00;;;5.30;99.90;;;;;;5074013;28;20025;-64
2023/12/16 08:15:16;;;;;;;16.30;12.70;;;5.50;99.90;;;;;;5073894;28;20434;-64
2023/12/16 08:17:42;;;;;;;14.82;11.60;;;5.50;99.90;;;;;;5074236;28;20563;-65
2023/12/16 08:20:08;;;;;;;14.00;11.35;;;5.50;99.90;;;;;;5073777;28;20035;-65
2023/12/16 08:22:34;;;;;;;13.13;11.45;;;5.50;99.90;;;;;;5073649;28;20013;-65
2023/12/16 08:25:01;;;;;;;13.93;11.73;;;5.50;99.90;;;;;;5073519;28;20051;-65
2023/12/16 08:27:27;;;;;;;14.07;11.88;;;5.60;99.90;;;;;;5073577;28;20103;-65
2023/12/16 08:29:53;;;;;;;15.55;12.30;;;5.50;99.90;;;;;;5072967;28;20394;-65
2023/12/16 08:32:19;;;;;;;15.43;12.63;;;5.50;99.90;;;;;;5073926;28;20024;-64
2023/12/16 08:34:44;;;;;;;14.52;12.18;;;5.40;99.90;;;;;;5073455;28;20048;-64
2023/12/16 08:37:10;;;;;;;13.63;11.15;;;5.30;99.90;;;;;;5073424;28;20025;-65
2023/12/16 08:39:36;;;;;;;13.68;11.77;;;5.30;99.90;;;;;;5073044;28;20052;-65
2023/12/16 08:42:01;;;;;;;18.20;13.70;;;5.20;99.90;;;;;;5073338;28;20036;-64
2023/12/16 08:44:27;;;;;;;18.88;15.50;;;5.20;99.90;;;;;;5073444;28;20033;-65
2023/12/16 08:46:53;;;;;;;19.50;17.05;;;5.20;99.90;;;;;;5073275;28;20153;-64
2023/12/16 08:49:18;;;;;;;21.08;18.33;;;5.10;99.90;;;;;;5073535;28;20445;-65
2023/12/16 08:51:45;;;;;;;21.80;19.55;;;5.10;99.90;;;;;;5071873;28;20028;-65
2023/12/16 08:54:10;;;;;;;24.15;21.50;;;5.10;99.90;;;;;;5072519;28;20024;-65
2023/12/16 08:56:36;;;;;;;23.35;20.00;;;5.10;99.90;;;;;;5073031;28;20101;-65
2023/12/16 08:59:02;;;;;;;20.42;18.23;;;5.10;99.90;;;;;;5072907;28;20047;-65
2023/12/16 09:01:28;;;;;;;22.95;20.55;;;5.10;99.90;;;;;;5073544;28;20487;-64
2023/12/16 09:03:53;;;;;;;24.67;21.10;;;5.20;99.90;;;;;;5072979;28;20025;-65
2023/12/16 09:06:20;;;;;;;24.55;21.42;;;5.20;99.90;;;;;;5072768;28;20017;-65
2023/12/16 09:08:46;;;;;;;23.42;21.05;;;5.30;99.90;;;;;;5072473;28;20483;-64
2023/12/16 09:11:12;;;;;;;24.90;22.40;;;5.30;99.90;;;;;;5073014;28;20024;-65
2023/12/16 09:13:37;;;;;;;25.08;22.52;;;5.40;99.90;;;;;;5073092;28;20115;-64
2023/12/16 09:16:04;;;;;;;25.42;22.73;;;5.40;99.90;;;;;;5072327;28;20036;-65
2023/12/16 09:18:29;;;;;;;25.70;22.35;;;5.40;99.90;;;;;;5073062;28;20413;-65
2023/12/16 09:20:55;;;;;;;25.92;23.23;;;5.50;99.90;;;;;;5072552;28;20029;-65
2023/12/16 09:23:21;;;;;;;25.65;22.95;;;5.50;99.90;;;;;;5072227;28;20108;-64
2023/12/16 09:25:46;;;;;;;24.90;22.10;;;5.60;99.90;;;;;;5073015;28;20433;-65
2023/12/16 09:28:12;;;;;;;22.45;19.88;;;5.60;99.90;;;;;;5072550;28;20107;-65
2023/12/16 09:30:38;;;;;;;20.00;17.90;;;5.70;99.90;;;;;;5072340;28;20036;-65
2023/12/16 09:33:04;;;;;;;19.23;17.27;;;5.70;99.90;;;;;;5072524;28;20016;-65
2023/12/16 09:35:30;;;;;;;18.83;16.83;;;5.80;99.90;;;;;;5072031;28;20119;-65
2023/12/16 09:37:55;;;;;;;18.27;16.35;;;5.90;99.90;;;;;;5072270;28;20111;-65
2023/12/16 09:40:21;;;;;;;20.70;18.48;;;6.00;99.90;;;;;;5071579;28;20471;-65
2023/12/16 09:42:53;;;;;;;20.70;18.50;;;6.00;99.90;;;;;;5071826;28;20115;-65
2023/12/16 09:45:19;;;;;;;19.75;17.75;;;6.00;99.90;;;;;;5072414;28;20020;-64
2023/12/16 09:47:45;;;;;;;19.88;17.45;;;6.00;99.90;;;;;;5072227;28;20025;-65
2023/12/16 09:50:11;;;;;;;19.65;17.55;;;6.10;99.90;;;;;;5071864;28;20085;-65
2023/12/16 09:52:39;;;;;;;18.60;16.80;;;6.10;99.90;;;;;;5071699;28;20048;-65
2023/12/16 09:55:05;;;;;;;19.13;16.90;;;6.20;99.90;;;;;;5071921;28;20089;-65
2023/12/16 09:57:35;;;;;;;18.02;16.13;;;6.20;99.90;;;;;;5072230;28;20025;-65
2023/12/16 10:00:02;;;;;;;18.00;16.10;;;6.30;99.90;;;;;;5071730;28;20051;-65
2023/12/16 10:02:28;;;;;;;17.75;15.88;;;6.40;99.90;;;;;;5071792;28;20063;-65
2023/12/16 10:04:59;;;;;;;17.98;16.20;;;6.50;99.90;;;;;;5071626;28;20032;-65
2023/12/16 10:07:25;;;;;;;17.60;15.80;;;6.50;99.90;;;;;;5071751;28;20116;-65
2023/12/16 10:09:51;;;;;;;19.08;16.83;;;6.60;99.90;;;;;;5071716;28;20028;-65
2023/12/16 10:12:18;;;;;;;17.63;15.82;;;6.80;99.90;;;;;;5071296;28;20375;-65
2023/12/16 10:14:49;;;;;;;17.38;15.68;;;6.80;99.90;;;;;;5071832;28;20029;-65
2023/12/16 10:17:19;;;;;;;18.40;16.58;;;7.00;99.90;;;;;;5071528;28;20044;-65
2023/12/16 10:19:45;;;;;;;17.50;15.70;;;7.20;99.90;;;;;;5071624;28;20386;-65
2023/12/16 10:22:16;;;;;;;16.67;14.95;;;7.40;99.90;;;;;;5071365;28;20029;-65
2023/12/16 10:24:42;;;;;;;16.15;14.50;;;7.60;99.90;;;;;;5071790;28;20044;-65
2023/12/16 10:27:08;;;;;;;14.88;13.38;;;7.80;99.90;;;;;;5071507;28;20024;-65
2023/12/16 10:29:34;;;;;;;14.63;13.32;;;8.00;99.90;;;;;;5071391;28;20032;-65
2023/12/16 10:32:00;;;;;;;13.80;12.48;;;8.10;99.90;;;;;;5071348;28;20024;-65
2023/12/16 10:34:29;;;;;;;13.02;11.88;;;8.20;99.90;;;;;;5071486;28;20067;-66
2023/12/16 10:37:11;;;;;;;13.95;12.55;;;8.30;99.90;;;;;;5071177;28;20060;-65
2023/12/16 10:39:36;;;;;;;12.48;11.18;;;8.30;99.90;;;;;;5071484;28;20032;-65
2023/12/16 10:42:03;;;;;;;10.18;9.25;;;8.40;99.90;;;;;;5071314;28;20028;-65
2023/12/16 10:44:29;;;;;;;10.10;8.68;;;8.50;99.90;;;;;;5071279;28;20029;-65
2023/12/16 10:46:55;;;;;;;10.23;9.23;;;8.50;99.90;;;;;;5071318;28;20031;-64
2023/12/16 10:49:44;;;;;;;8.93;8.10;;;8.40;99.90;;;;;;5070992;28;20056;-65
2023/12/16 10:52:12;;;;;;;8.88;7.97;;;8.30;99.90;;;;;;5070470;28;20483;-65
2023/12/16 10:54:47;;;;;;;8.60;7.80;;;8.30;99.90;;;;;;5071119;28;20047;-65
2023/12/16 10:57:21;;;;;;;9.02;8.13;;;8.30;99.90;;;;;;5071216;28;20061;-65
2023/12/16 11:00:07;;;;;;;8.98;8.10;;;8.30;99.90;;;;;;5071428;28;20131;-65
2023/12/16 11:02:46;;;;;;;9.10;8.20;;;8.30;99.90;;;;;;5071069;28;20021;-65
2023/12/16 11:05:34;;;;;;;8.60;7.72;;;8.30;99.90;;;;;;5070624;28;20094;-65
2023/12/16 11:08:04;;;;;;;8.43;7.57;;;8.30;99.90;;;;;;5071037;28;20032;-65
2023/12/16 11:10:30;;;;;;;8.60;7.80;;;8.40;99.90;;;;;;5069835;28;20032;-65
2023/12/16 11:13:01;;;;;;;8.15;7.20;;;8.40;99.90;;;;;;5070863;28;20064;-65
2023/12/16 11:15:27;;;;;;;7.63;6.90;;;8.50;99.90;;;;;;5070885;28;20111;-65
2023/12/16 11:18:16;;;;;;;7.50;6.70;;;8.50;99.90;;;;;;5071135;28;20483;-65
2023/12/16 11:20:50;;;;;;;7.28;6.68;;;8.60;99.90;;;;;;5070463;28;20537;-66
2023/12/16 11:23:18;;;;;;;6.30;5.80;;;8.70;99.90;;;;;;5071054;28;20032;-65
2023/12/16 11:25:45;;;;;;;6.82;6.22;;;8.70;99.90;;;;;;5070832;28;20028;-65
2023/12/16 11:28:16;;;;;;;6.07;5.55;;;8.80;99.90;;;;;;5069450;28;20473;-65
2023/12/16 11:30:42;;;;;;;7.20;5.78;;;8.80;99.90;;;;;;5070778;28;20028;-65
2023/12/16 11:33:08;;;;;;;6.50;5.57;;;8.90;99.90;;;;;;5070656;28;20025;-65
2023/12/16 11:35:36;;;;;;;5.47;4.97;;;9.00;99.90;;;;;;5070663;28;20040;-65
2023/12/16 11:38:06;;;;;;;5.70;5.20;;;9.00;99.90;;;;;;5070681;28;20032;-65
2023/12/16 11:40:43;;;;;;;6.13;5.53;;;9.10;99.90;;;;;;5070650;28;20502;-65
2023/12/16 11:43:12;;;;;;;6.78;5.75;;;9.20;99.90;;;;;;5071259;28;20024;-65
2023/12/16 11:45:42;;;;;;;6.20;5.60;;;9.20;99.90;;;;;;5070654;28;20028;-65
2023/12/16 11:48:15;;;;;;;5.97;5.38;;;9.30;99.90;;;;;;5070415;28;20035;-65
2023/12/16 11:50:46;;;;;;;6.15;5.63;;;9.40;99.90;;;;;;5070505;28;20036;-65
2023/12/16 11:53:13;;;;;;;6.57;5.95;;;9.40;99.90;;;;;;5070646;28;20514;-65
2023/12/16 11:55:39;;;;;;;6.20;5.60;;;9.60;99.90;;;;;;5070245;28;20052;-65
2023/12/16 11:58:05;;;;;;;6.20;5.60;;;9.50;99.90;;;;;;5070753;28;20032;-65
2023/12/16 12:00:31;;;;;;;6.43;5.82;;;9.60;99.90;;;;;;5070120;28;20060;-66
2023/12/16 12:03:00;;;;;;;6.55;5.82;;;9.70;99.90;;;;;;5070143;28;20414;-66
2023/12/16 12:05:27;;;;;;;7.07;6.30;;;9.70;99.90;;;;;;5073476;28;20107;-65
2023/12/16 12:07:52;;;;;;;6.50;5.90;;;9.80;99.90;;;;;;5074112;28;20024;-65
2023/12/16 12:10:18;;;;;;;5.88;5.25;;;9.80;99.90;;;;;;5074027;28;20116;-65
2023/12/16 12:12:44;;;;;;;6.18;5.40;;;9.90;99.90;;;;;;5074002;28;20021;-65
2023/12/16 12:15:10;;;;;;;5.70;5.20;;;10.00;99.90;;;;;;5072898;28;20036;-65
2023/12/16 12:17:36;;;;;;;5.82;5.20;;;10.40;99.90;;;;;;5073513;28;20036;-66
2023/12/16 12:20:03;;;;;;;6.05;5.38;;;10.70;99.90;;;;;;5073836;28;20112;-65
2023/12/16 12:22:30;;;;;;;5.20;4.70;;;10.80;99.90;;;;;;5073789;28;20020;-65
2023/12/16 12:24:56;;;;;;;5.63;4.50;;;11.00;99.90;;;;;;5073758;28;20048;-64
2023/12/16 12:27:23;;;;;;;5.13;4.30;;;11.00;99.90;;;;;;5074059;28;20048;-65
2023/12/16 12:29:55;;;;;;;5.75;4.03;;;11.00;99.90;;;;;;5073671;28;20036;-65
2023/12/16 12:32:22;;;;;;;4.20;3.57;;;11.20;99.90;;;;;;5073340;28;20032;-65
2023/12/16 12:34:57;;;;;;;4.15;3.45;;;11.30;99.90;;;;;;5073832;28;20041;-66
2023/12/16 12:37:23;;;;;;;3.53;3.20;;;11.40;99.90;;;;;;5073549;28;20029;-66